Stations météo

Publicité
Chamonix, France (7469): Température de l'air & dewpoint: 14.08.2019 13:00:00 - 20.08.2019 13:00:00 (CEST)Chamonix, France (7469): Vitesse du vent & gusts: 14.08.2019 13:00:00 - 20.08.2019 13:00:00 (CEST)Chamonix, France (7469): Direction du vent: 14.08.2019 13:00:00 - 20.08.2019 13:00:00 (CEST)Chamonix, France (7469): Quantités de précipitations: 14.08.2019 13:00:00 - 20.08.2019 13:00:00 (CEST)
Date & Time tt [°C] td [°C] ff [km/h] ff [knt] fx [km/h] fx [knt] dd rr [mm]
20.08.2019 13:00:00 - - - - - - - -
20.08.2019 12:00:00 15,1 14,5 2 1 11 6 SW 0,4
20.08.2019 11:00:00 14,7 14,2 4 2 8 4 NNE 3,0
20.08.2019 10:00:00 14,4 13,9 0 0 5 3 N 2,0
20.08.2019 09:00:00 14,3 13,8 4 2 8 4 WSW 0,4
20.08.2019 08:00:00 13,8 13,3 2 1 5 3 N -
20.08.2019 07:00:00 13,9 13,4 2 1 9 5 SW 0,0
20.08.2019 06:00:00 13,8 13,2 0 0 8 4 N 0,0
20.08.2019 05:00:00 14,4 13,8 4 2 9 5 NNW 5,0
20.08.2019 04:00:00 14,8 14,2 0 0 8 4 N 2,0
20.08.2019 03:00:00 14,9 14,1 5 3 15 8 WNW 2,0
20.08.2019 02:00:00 15,4 14,4 4 2 9 5 SSW -
20.08.2019 01:00:00 15,5 14,2 0 0 4 2 N 0,0
20.08.2019 00:00:00 15,6 14,1 0 0 8 4 N 0,0
19.08.2019 23:00:00 16,0 14,0 2 1 11 6 S 0,0
19.08.2019 22:00:00 16,5 14,5 2 1 16 9 S 0,0
19.08.2019 21:00:00 17,1 14,6 5 3 16 9 SW 0,0
19.08.2019 20:00:00 18,2 14,9 5 3 15 8 SW -
19.08.2019 19:00:00 19,2 15,3 2 1 13 7 SSW 0,0
19.08.2019 18:00:00 20,2 15,8 4 2 13 7 SSW 0,0
19.08.2019 17:00:00 22,6 14,9 5 3 13 7 SW 0,0
19.08.2019 16:00:00 20,7 15,5 2 1 9 5 NW 0,0
19.08.2019 15:00:00 20,1 15,5 4 2 8 4 NNW 0,0
19.08.2019 14:00:00 18,0 15,4 0 0 9 5 N -
19.08.2019 13:00:00 16,9 15,8 4 2 9 5 N 0,6
19.08.2019 12:00:00 16,9 15,8 0 0 4 2 N 0,0
19.08.2019 11:00:00 16,0 14,9 0 0 9 5 N 0,0
19.08.2019 10:00:00 16,0 15,2 0 0 8 4 N 0,0
19.08.2019 09:00:00 14,7 14,2 4 2 8 4 SW 1,0
19.08.2019 08:00:00 14,4 13,8 0 0 9 5 N -
19.08.2019 07:00:00 14,6 14,0 4 2 11 6 S 0,4
19.08.2019 06:00:00 14,8 14,0 2 1 15 8 N 3,0
19.08.2019 05:00:00 15,2 14,4 4 2 22 12 S 12,0
19.08.2019 04:00:00 15,4 14,6 4 2 15 8 S 6,0
19.08.2019 03:00:00 15,6 14,5 0 0 15 8 N 0,0
19.08.2019 02:00:00 16,7 13,6 8 4 59 32 SSE -
19.08.2019 01:00:00 18,7 15,2 5 3 18 10 SSW 0,0
19.08.2019 00:00:00 16,3 13,8 0 0 8 4 N 0,0
18.08.2019 23:00:00 16,1 13,4 2 1 8 4 E 0,0
18.08.2019 22:00:00 16,8 13,1 2 1 8 4 E 0,0
18.08.2019 21:00:00 19,0 13,8 2 1 9 5 NNE 0,0
18.08.2019 20:00:00 23,0 12,3 2 1 13 7 WSW -
18.08.2019 19:00:00 24,6 12,9 2 1 21 11 SSW 0,0
18.08.2019 18:00:00 30,8 11,7 4 2 28 15 SW 0,0
18.08.2019 17:00:00 31,3 9,5 8 4 28 15 SSW 0,0
18.08.2019 16:00:00 31,4 7,1 5 3 31 17 SSW 0,0
18.08.2019 15:00:00 31,3 6,4 11 6 34 18 SW 0,0
18.08.2019 14:00:00 30,3 7,5 11 6 34 18 SW -
18.08.2019 13:00:00 29,7 8,7 8 4 18 10 S 0,0
18.08.2019 12:00:00 24,6 12,5 0 0 8 4 N 0,0
18.08.2019 11:00:00 20,1 11,3 2 1 8 4 SE 0,0
18.08.2019 10:00:00 14,2 13,1 2 1 8 4 ESE 0,0
18.08.2019 09:00:00 10,4 9,8 0 0 9 5 N 0,0
18.08.2019 08:00:00 9,9 9,3 4 2 9 5 NW -
18.08.2019 07:00:00 9,7 8,9 0 0 5 3 N 0,0
18.08.2019 06:00:00 10,0 9,1 0 0 5 3 N 0,0
18.08.2019 05:00:00 10,8 9,9 0 0 8 4 N 0,0
18.08.2019 04:00:00 11,6 10,5 0 0 8 4 N 0,0
18.08.2019 03:00:00 12,2 10,8 2 1 5 3 E 0,0
18.08.2019 02:00:00 13,2 11,1 0 0 4 2 N -
18.08.2019 01:00:00 14,1 11,8 0 0 5 3 N 0,0
18.08.2019 00:00:00 14,3 11,8 2 1 5 3 NNE 0,0
17.08.2019 23:00:00 14,4 11,9 0 0 5 3 N 0,0
17.08.2019 22:00:00 14,8 12,1 0 0 5 3 N 0,0
17.08.2019 21:00:00 15,9 11,9 0 0 5 3 N 0,0
17.08.2019 20:00:00 18,1 13,0 0 0 18 10 N -
17.08.2019 19:00:00 21,4 10,5 0 0 21 11 N 0,0
17.08.2019 18:00:00 26,1 12,5 2 1 15 8 SSW 0,0
17.08.2019 17:00:00 24,9 10,4 4 2 18 10 S 0,0
17.08.2019 16:00:00 27,0 7,4 5 3 26 14 SSW 0,0
17.08.2019 15:00:00 26,5 4,3 9 5 22 12 SW 0,0
17.08.2019 14:00:00 26,4 6,9 4 2 18 10 SSE -
17.08.2019 13:00:00 25,8 5,4 5 3 21 11 S 0,0
17.08.2019 12:00:00 21,9 11,0 2 1 8 4 ESE 0,0
17.08.2019 11:00:00 18,2 9,0 0 0 8 4 N 0,0
17.08.2019 10:00:00 13,7 12,4 2 1 5 3 N 0,0
17.08.2019 09:00:00 9,0 8,7 0 0 4 2 N 0,0
17.08.2019 08:00:00 7,8 7,5 2 1 8 4 E -
17.08.2019 07:00:00 6,3 5,7 0 0 8 4 N 0,0
17.08.2019 06:00:00 6,6 6,0 2 1 4 2 NW 0,0
17.08.2019 05:00:00 6,8 6,2 0 0 5 3 N 0,0
17.08.2019 04:00:00 7,3 6,7 0 0 4 2 N 0,0
17.08.2019 03:00:00 7,8 7,0 0 0 4 2 N 0,0
17.08.2019 02:00:00 8,4 7,6 2 1 5 3 N -
17.08.2019 01:00:00 9,1 8,2 0 0 4 2 N 0,0
17.08.2019 00:00:00 9,9 8,8 2 1 5 3 E 0,0
16.08.2019 23:00:00 10,8 9,6 4 2 8 4 ENE 0,0
16.08.2019 22:00:00 11,8 10,4 4 2 8 4 NE 0,0
16.08.2019 21:00:00 13,2 10,6 0 0 5 3 N 0,0
16.08.2019 20:00:00 15,2 11,4 0 0 8 4 N -
16.08.2019 19:00:00 19,2 11,0 4 2 15 8 WNW 0,0
16.08.2019 18:00:00 23,3 8,9 5 3 21 11 SW 0,0
16.08.2019 17:00:00 24,0 9,9 8 4 28 15 S 0,0
16.08.2019 16:00:00 23,8 9,0 8 4 22 12 SW 0,0
16.08.2019 15:00:00 23,5 4,4 8 4 21 11 SW 0,0
16.08.2019 14:00:00 22,6 7,6 5 3 15 8 SSW -
16.08.2019 13:00:00 20,9 7,8 4 2 15 8 WSW 0,0
16.08.2019 12:00:00 18,8 6,9 4 2 13 7 SSW 0,0
16.08.2019 11:00:00 14,6 8,5 2 1 9 5 S 0,0
16.08.2019 10:00:00 10,2 9,9 2 1 8 4 E 0,0
16.08.2019 09:00:00 8,1 7,7 0 0 8 4 N 0,0
16.08.2019 08:00:00 7,8 7,4 0 0 5 3 N -
16.08.2019 07:00:00 7,8 7,2 0 0 5 3 N 0,0
16.08.2019 06:00:00 8,5 7,7 0 0 4 2 N 0,0
16.08.2019 05:00:00 9,6 8,8 0 0 9 5 N 0,0
16.08.2019 04:00:00 9,7 8,9 0 0 4 2 N 0,0
16.08.2019 03:00:00 9,8 8,6 0 0 4 2 N 0,0
16.08.2019 02:00:00 11,2 9,6 0 0 4 2 N -
16.08.2019 01:00:00 11,8 9,7 0 0 11 6 N 0,0
16.08.2019 00:00:00 13,8 9,6 2 1 13 7 SW 0,0
15.08.2019 23:00:00 14,9 10,1 5 3 15 8 WSW 0,0
15.08.2019 22:00:00 15,8 9,9 4 2 13 7 SSW 0,0
15.08.2019 21:00:00 16,7 10,3 4 2 26 14 S 0,0
15.08.2019 20:00:00 18,0 9,9 5 3 22 12 S -
15.08.2019 19:00:00 19,3 10,6 8 4 28 15 S 0,0
15.08.2019 18:00:00 21,8 10,0 5 3 28 15 SSE 0,0
15.08.2019 17:00:00 22,3 9,1 9 5 28 15 S 0,0
15.08.2019 16:00:00 23,3 8,2 8 4 26 14 SW 0,0
15.08.2019 15:00:00 23,0 7,9 8 4 24 13 S 0,0
15.08.2019 14:00:00 22,7 11,1 8 4 26 14 S -
15.08.2019 13:00:00 22,2 10,3 9 5 29 16 SSE 0,0
15.08.2019 12:00:00 20,5 9,1 5 3 21 11 SSE 0,0
15.08.2019 11:00:00 17,6 7,6 4 2 24 13 NNE 0,0
15.08.2019 10:00:00 13,5 9,9 2 1 8 4 SE 0,0
15.08.2019 09:00:00 11,7 10,8 2 1 8 4 N 0,0
15.08.2019 08:00:00 10,0 9,7 2 1 8 4 WNW -
15.08.2019 07:00:00 8,5 8,1 2 1 8 4 NNW 0,0
15.08.2019 06:00:00 8,0 7,6 0 0 5 3 N 0,2
15.08.2019 05:00:00 7,7 7,3 2 1 8 4 NNE 0,0
15.08.2019 04:00:00 7,1 6,5 0 0 8 4 N 0,0
15.08.2019 03:00:00 7,4 6,8 0 0 4 2 N 0,0
15.08.2019 02:00:00 7,5 6,8 0 0 8 4 N -
15.08.2019 01:00:00 8,0 7,2 0 0 4 2 N 0,0
15.08.2019 00:00:00 8,7 7,8 2 1 5 3 NE 0,0
14.08.2019 23:00:00 9,5 8,3 0 0 4 2 N 0,0
14.08.2019 22:00:00 10,8 8,9 0 0 4 2 N 0,0
14.08.2019 21:00:00 12,4 9,0 0 0 8 4 N 0,0
14.08.2019 20:00:00 16,4 9,1 4 2 9 5 WSW -
14.08.2019 19:00:00 19,2 7,0 4 2 24 13 WSW 0,0
14.08.2019 18:00:00 23,0 6,3 4 2 22 12 S 0,0
14.08.2019 17:00:00 23,0 7,5 4 2 21 11 S 0,0
14.08.2019 16:00:00 22,9 6,2 5 3 18 10 SSW 0,0
14.08.2019 15:00:00 - - - - - - - -
14.08.2019 14:00:00 20,2 7,6 4 2 18 10 SE -
14.08.2019 13:00:00 18,8 7,2 5 3 13 7 SW 0,0

tt = Température de l'air
td = dewpoint
ff = Vitesse du vent
fx = gusts
dd = Direction du vent
rr = Quantités de précipitations

stations d'obs. à proximité